createdAt,value
2022-11-10T00:01:09.819Z,4.67
2022-11-10T00:03:40.308Z,4.60
2022-11-10T00:06:10.980Z,5.10
2022-11-10T00:08:39.144Z,4.30
2022-11-10T00:11:08.221Z,4.70
2022-11-10T00:13:57.648Z,4.90
2022-11-10T00:16:44.985Z,4.20
2022-11-10T00:19:13.241Z,5.20
2022-11-10T00:21:41.617Z,5.27
2022-11-10T00:24:10.274Z,4.57
2022-11-10T00:26:38.644Z,3.97
2022-11-10T00:29:07.009Z,4.23
2022-11-10T00:31:38.778Z,4.30
2022-11-10T00:34:08.126Z,4.83
2022-11-10T00:36:36.390Z,4.10
2022-11-10T00:39:05.021Z,4.23
2022-11-10T00:41:33.209Z,3.90
2022-11-10T00:44:01.922Z,4.50
2022-11-10T00:46:30.334Z,4.47
2022-11-10T00:48:59.848Z,4.07
2022-11-10T00:51:29.168Z,3.97
2022-11-10T00:53:57.597Z,4.67
2022-11-10T00:56:26.389Z,4.13
2022-11-10T00:58:54.523Z,4.87
2022-11-10T01:01:25.716Z,4.30
2022-11-10T01:03:54.676Z,4.13
2022-11-10T01:06:24.621Z,3.97
2022-11-10T01:08:52.800Z,4.97
2022-11-10T01:11:22.971Z,4.47
2022-11-10T01:13:53.228Z,4.30
2022-11-10T01:16:26.622Z,4.03
2022-11-10T01:19:00.101Z,4.40
2022-11-10T01:21:30.911Z,4.13
2022-11-10T01:23:59.418Z,4.17
2022-11-10T01:26:27.809Z,3.83
2022-11-10T01:28:56.204Z,4.67
2022-11-10T01:31:24.491Z,4.67
2022-11-10T01:33:52.921Z,5.00
2022-11-10T01:36:21.181Z,4.23
2022-11-10T01:38:50.853Z,4.90
2022-11-10T01:41:20.809Z,5.20
2022-11-10T01:43:49.203Z,5.10
2022-11-10T01:46:17.574Z,4.67
2022-11-10T01:48:59.575Z,4.73
2022-11-10T01:51:36.113Z,6.00
2022-11-10T01:54:10.628Z,6.63
2022-11-10T01:56:43.471Z,6.33
2022-11-10T01:59:15.290Z,6.07
2022-11-10T02:01:43.721Z,5.13
2022-11-10T02:04:16.648Z,6.30
2022-11-10T02:06:47.965Z,4.97
2022-11-10T02:09:21.110Z,5.47
2022-11-10T02:11:52.796Z,5.20
2022-11-10T02:14:24.143Z,6.27
2022-11-10T02:16:52.468Z,5.87
2022-11-10T02:19:22.921Z,5.47
2022-11-10T02:21:52.463Z,5.47
2022-11-10T02:24:24.840Z,4.97
2022-11-10T02:26:55.860Z,5.60
2022-11-10T02:29:25.212Z,6.03
2022-11-10T02:31:53.639Z,6.73
2022-11-10T02:34:22.501Z,5.50
2022-11-10T02:36:52.010Z,6.83
2022-11-10T02:39:24.973Z,5.73
2022-11-10T02:41:55.149Z,5.67
2022-11-10T02:44:23.482Z,5.73
2022-11-10T02:46:55.133Z,5.77
2022-11-10T02:49:23.479Z,5.10
2022-11-10T02:51:53.101Z,6.33
2022-11-10T02:54:21.547Z,6.13
2022-11-10T02:56:53.030Z,5.13
2022-11-10T02:59:21.505Z,5.17
2022-11-10T03:01:49.914Z,4.67
2022-11-10T03:04:18.142Z,5.50
2022-11-10T03:06:46.500Z,5.03
2022-11-10T03:09:16.260Z,4.37
2022-11-10T03:11:44.537Z,5.60
2022-11-10T03:14:13.364Z,4.93
2022-11-10T03:16:41.660Z,5.20
2022-11-10T03:19:10.136Z,4.23
2022-11-10T03:21:43.950Z,4.80
2022-11-10T03:24:12.318Z,4.83
2022-11-10T03:26:41.895Z,4.63
2022-11-10T03:29:10.541Z,5.63
2022-11-10T03:31:41.117Z,4.93
2022-11-10T03:34:09.488Z,5.03
2022-11-10T03:36:37.983Z,5.90
2022-11-10T03:39:06.380Z,4.57
2022-11-10T03:41:40.552Z,4.90
2022-11-10T03:44:10.204Z,5.30
2022-11-10T03:46:43.493Z,5.70
2022-11-10T03:49:15.486Z,5.90
2022-11-10T03:51:43.776Z,6.13
2022-11-10T03:54:15.100Z,6.30
2022-11-10T03:56:43.284Z,5.70
2022-11-10T03:59:12.834Z,6.27
2022-11-10T04:01:44.112Z,6.47
2022-11-10T04:04:33.563Z,5.80
2022-11-10T04:07:19.309Z,6.93
2022-11-10T04:09:48.896Z,6.63
2022-11-10T04:12:34.376Z,7.10
2022-11-10T04:15:21.706Z,5.33
2022-11-10T04:17:53.121Z,5.60
2022-11-10T04:20:23.658Z,5.87
2022-11-10T04:23:09.700Z,5.93
2022-11-10T04:25:57.991Z,5.27
2022-11-10T04:28:26.242Z,5.60
2022-11-10T04:30:55.688Z,5.47
2022-11-10T04:33:26.653Z,5.57
2022-11-10T04:35:54.863Z,5.20
2022-11-10T04:38:25.845Z,5.60
2022-11-10T04:40:54.350Z,5.50
2022-11-10T04:43:23.189Z,6.27
2022-11-10T04:45:54.933Z,6.13
2022-11-10T04:48:24.863Z,6.03
2022-11-10T04:50:56.496Z,5.83
2022-11-10T04:53:25.539Z,5.73
2022-11-10T04:55:57.221Z,5.27
2022-11-10T04:58:31.886Z,5.13
2022-11-10T05:01:00.184Z,4.63
2022-11-10T05:03:29.729Z,5.43
2022-11-10T05:06:00.904Z,5.17
2022-11-10T05:08:29.300Z,5.40
2022-11-10T05:10:57.540Z,5.30
2022-11-10T05:13:26.399Z,5.60
2022-11-10T05:15:54.658Z,5.53
2022-11-10T05:18:23.094Z,5.10
2022-11-10T05:20:53.408Z,5.33
2022-11-10T05:23:40.273Z,6.67
2022-11-10T05:26:10.190Z,5.43
2022-11-10T05:28:38.608Z,5.40
2022-11-10T05:31:07.163Z,5.97
2022-11-10T05:33:36.136Z,5.90
2022-11-10T05:36:07.056Z,5.73
2022-11-10T05:38:39.065Z,5.13
2022-11-10T05:41:10.246Z,5.93
2022-11-10T05:43:38.665Z,6.60
2022-11-10T05:46:07.024Z,7.60
2022-11-10T05:48:35.229Z,7.03
2022-11-10T05:51:03.636Z,6.67
2022-11-10T05:53:33.843Z,7.13
2022-11-10T05:56:02.226Z,7.77
2022-11-10T05:58:30.766Z,7.43
2022-11-10T06:00:59.242Z,7.87
2022-11-10T06:03:28.817Z,7.13
2022-11-10T06:05:57.146Z,6.80
2022-11-10T06:08:25.663Z,7.10
2022-11-10T06:10:55.467Z,6.50
2022-11-10T06:13:24.217Z,5.83
2022-11-10T06:15:52.613Z,6.03
2022-11-10T06:18:20.784Z,4.80
2022-11-10T06:20:49.212Z,4.97
2022-11-10T06:23:17.378Z,5.03
2022-11-10T06:25:45.954Z,5.47
2022-11-10T06:28:16.146Z,5.33
2022-11-10T06:30:44.596Z,4.60
2022-11-10T06:33:13.166Z,4.93
2022-11-10T06:35:43.470Z,5.03
2022-11-10T06:38:12.743Z,4.73
2022-11-10T06:40:41.095Z,5.40
2022-11-10T06:43:09.491Z,5.47
2022-11-10T06:45:39.158Z,5.30
2022-11-10T06:48:09.353Z,5.37
2022-11-10T06:50:37.741Z,5.70
2022-11-10T06:53:06.191Z,4.90
2022-11-10T06:55:34.443Z,5.60
2022-11-10T06:58:02.736Z,5.77
2022-11-10T07:00:31.315Z,5.97
2022-11-10T07:03:05.488Z,5.37
2022-11-10T07:05:35.436Z,6.13
2022-11-10T07:08:04.744Z,6.10
2022-11-10T07:10:33.370Z,5.10
2022-11-10T07:13:03.332Z,4.93
2022-11-10T07:15:31.870Z,5.87
2022-11-10T07:18:00.263Z,5.90
2022-11-10T07:20:30.106Z,4.20
2022-11-10T07:23:00.264Z,4.83
2022-11-10T07:25:29.106Z,4.70
2022-11-10T07:27:57.381Z,4.10
2022-11-10T07:30:28.298Z,4.20
2022-11-10T07:33:01.134Z,4.63
2022-11-10T07:35:31.376Z,4.43
2022-11-10T07:38:06.987Z,4.63
2022-11-10T07:40:35.760Z,3.83
2022-11-10T07:43:04.392Z,4.47
2022-11-10T07:45:33.227Z,4.70
2022-11-10T07:48:02.025Z,5.30
2022-11-10T07:50:31.862Z,5.03
2022-11-10T07:53:08.667Z,4.63
2022-11-10T07:55:39.111Z,4.97
2022-11-10T07:58:07.998Z,4.43
2022-11-10T08:00:37.388Z,4.97
2022-11-10T08:03:07.168Z,4.40
2022-11-10T08:05:36.658Z,3.90
2022-11-10T08:08:05.380Z,3.93
2022-11-10T08:10:36.075Z,3.80
2022-11-10T08:13:06.821Z,3.90
2022-11-10T08:15:35.767Z,3.40
2022-11-10T08:18:06.605Z,3.50
2022-11-10T08:20:36.497Z,4.07
2022-11-10T08:23:06.552Z,3.80
2022-11-10T08:25:36.038Z,4.37
2022-11-10T08:28:05.959Z,4.70
2022-11-10T08:30:35.893Z,4.20
2022-11-10T08:33:06.585Z,3.90
2022-11-10T08:35:40.113Z,3.83
2022-11-10T08:38:10.095Z,4.22
2022-11-10T08:40:38.675Z,4.50
2022-11-10T08:43:08.445Z,3.65
2022-11-10T08:45:37.523Z,4.57
2022-11-10T08:48:07.057Z,3.67
2022-11-10T08:50:36.947Z,3.55
2022-11-10T08:53:06.890Z,3.47
2022-11-10T08:55:35.466Z,3.50
2022-11-10T08:58:05.209Z,3.72
2022-11-10T09:00:34.391Z,3.70
2022-11-10T09:03:07.632Z,3.42
2022-11-10T09:05:37.683Z,3.08
2022-11-10T09:08:06.290Z,3.85
2022-11-10T09:10:35.739Z,3.42
2022-11-10T09:13:05.250Z,4.30
2022-11-10T09:15:34.423Z,4.07
2022-11-10T09:18:04.135Z,4.03
2022-11-10T09:20:33.598Z,3.50
2022-11-10T09:23:08.166Z,4.30
2022-11-10T09:25:36.586Z,4.18
2022-11-10T09:28:07.465Z,3.55
2022-11-10T09:30:35.765Z,3.25
2022-11-10T09:33:04.191Z,3.95
2022-11-10T09:35:32.649Z,3.35
2022-11-10T09:38:01.067Z,3.55
2022-11-10T09:40:41.155Z,3.25
2022-11-10T09:43:14.961Z,3.30
2022-11-10T09:45:46.331Z,2.90
2022-11-10T09:48:19.708Z,3.55
2022-11-10T09:50:51.646Z,3.63
2022-11-10T09:53:24.422Z,3.38
2022-11-10T09:55:59.435Z,3.03
2022-11-10T09:58:34.749Z,3.10
2022-11-10T10:01:16.399Z,3.47
2022-11-10T10:03:53.614Z,3.28
2022-11-10T10:06:22.948Z,3.53
2022-11-10T10:09:01.208Z,4.07
2022-11-10T10:11:43.341Z,3.80
2022-11-10T10:14:25.374Z,3.08
2022-11-10T10:17:01.665Z,3.30
2022-11-10T10:19:38.558Z,3.22
2022-11-10T10:22:27.319Z,2.78
2022-11-10T10:25:00.275Z,2.92
2022-11-10T10:27:30.675Z,2.78
2022-11-10T10:29:59.101Z,3.63
2022-11-10T10:32:28.207Z,2.40
2022-11-10T10:34:57.577Z,3.20
2022-11-10T10:37:29.008Z,2.10
2022-11-10T10:39:57.449Z,2.80
2022-11-10T10:42:32.392Z,3.17
2022-11-10T10:45:18.935Z,3.10
2022-11-10T10:47:48.080Z,3.63
2022-11-10T10:50:30.877Z,3.10
2022-11-10T10:53:15.773Z,3.25
2022-11-10T10:55:49.490Z,2.80
2022-11-10T10:58:25.037Z,2.72
2022-11-10T11:00:57.352Z,3.50
2022-11-10T11:03:29.244Z,2.60
2022-11-10T11:06:07.126Z,2.75
2022-11-10T11:08:35.588Z,3.45
2022-11-10T11:11:10.580Z,2.80
2022-11-10T11:13:40.588Z,2.42
2022-11-10T11:16:12.582Z,2.45
2022-11-10T11:18:41.599Z,1.45
2022-11-10T11:21:16.815Z,2.97
2022-11-10T11:23:57.775Z,2.88
2022-11-10T11:26:35.420Z,2.83
2022-11-10T11:29:17.583Z,2.85
2022-11-10T11:31:55.776Z,2.45
2022-11-10T11:34:29.902Z,2.42
2022-11-10T11:37:09.855Z,3.30
2022-11-10T11:39:49.553Z,2.50
2022-11-10T11:42:27.348Z,2.70
2022-11-10T11:45:07.961Z,2.50
2022-11-10T11:47:48.692Z,3.65
2022-11-10T11:50:25.638Z,2.22
2022-11-10T11:53:03.800Z,2.22
2022-11-10T11:55:55.204Z,2.90
2022-11-10T11:58:37.364Z,2.55
2022-11-10T12:01:23.536Z,2.63
2022-11-10T12:04:22.888Z,2.38
2022-11-10T12:07:02.736Z,2.90
2022-11-10T12:09:41.040Z,2.80
2022-11-10T12:12:25.971Z,2.72
2022-11-10T12:14:59.755Z,2.88
2022-11-10T12:17:41.062Z,2.47
2022-11-10T12:20:25.786Z,2.53
2022-11-10T12:23:03.043Z,3.50
2022-11-10T12:25:35.192Z,2.90
2022-11-10T12:28:14.037Z,2.47
2022-11-10T12:30:44.036Z,2.90
2022-11-10T12:33:21.851Z,3.08
2022-11-10T12:35:52.793Z,2.88
2022-11-10T12:38:25.971Z,3.15
2022-11-10T12:41:02.366Z,2.80
2022-11-10T12:43:36.926Z,3.25
2022-11-10T12:46:10.713Z,3.20
2022-11-10T12:48:47.369Z,2.83
2022-11-10T12:51:21.765Z,2.95
2022-11-10T12:53:50.806Z,2.67
2022-11-10T12:56:23.078Z,2.92
2022-11-10T12:59:15.791Z,2.70
2022-11-10T13:01:45.405Z,2.60
2022-11-10T13:04:17.824Z,2.47
2022-11-10T13:06:49.774Z,2.95
2022-11-10T13:09:26.006Z,2.83
2022-11-10T13:12:16.797Z,2.45
2022-11-10T13:14:46.393Z,2.50
2022-11-10T13:17:51.763Z,3.28
2022-11-10T13:20:53.377Z,2.70
2022-11-10T13:23:26.233Z,2.30
2022-11-10T13:25:57.882Z,2.03
2022-11-10T13:28:59.772Z,2.10
2022-11-10T13:31:54.972Z,1.90
2022-11-10T13:34:34.324Z,2.17
2022-11-10T13:37:05.314Z,2.28
2022-11-10T13:39:34.600Z,2.53
2022-11-10T13:42:19.695Z,2.38
2022-11-10T13:44:48.181Z,2.15
2022-11-10T13:47:51.295Z,2.00
2022-11-10T13:50:31.853Z,2.78
2022-11-10T13:53:18.361Z,2.50
2022-11-10T13:56:01.901Z,2.10
2022-11-10T13:58:32.154Z,2.03
2022-11-10T14:01:23.545Z,2.00
2022-11-10T14:04:09.718Z,2.50
2022-11-10T14:06:45.431Z,2.15
2022-11-10T14:09:27.028Z,2.25
2022-11-10T14:12:01.536Z,1.70
2022-11-10T14:14:36.475Z,1.80
2022-11-10T14:17:05.872Z,2.38
2022-11-10T14:19:40.204Z,2.33
2022-11-10T14:22:22.076Z,2.30
2022-11-10T14:24:59.089Z,2.13
2022-11-10T14:27:29.200Z,1.95
2022-11-10T14:30:10.908Z,2.25
2022-11-10T14:32:39.577Z,1.92
2022-11-10T14:35:18.618Z,2.30
2022-11-10T14:37:47.117Z,2.08
2022-11-10T14:40:20.253Z,2.05
2022-11-10T14:42:48.659Z,1.83
2022-11-10T14:45:18.843Z,2.25
2022-11-10T14:47:54.102Z,2.50
2022-11-10T14:50:24.409Z,2.03
2022-11-10T14:52:56.370Z,1.95
2022-11-10T14:55:30.141Z,1.45
2022-11-10T14:58:03.992Z,2.00
2022-11-10T15:00:36.782Z,2.05
2022-11-10T15:03:07.287Z,1.77
2022-11-10T15:05:35.969Z,1.77
2022-11-10T15:08:06.061Z,2.00
2022-11-10T15:10:50.645Z,2.25
2022-11-10T15:13:35.994Z,2.03
2022-11-10T15:16:23.090Z,1.85
2022-11-10T15:18:51.409Z,2.30
2022-11-10T15:21:21.197Z,2.33
2022-11-10T15:23:55.698Z,2.13
2022-11-10T15:26:27.431Z,1.50
2022-11-10T15:28:56.106Z,1.98
2022-11-10T15:31:26.448Z,2.22
2022-11-10T15:33:57.859Z,2.15
2022-11-10T15:36:32.155Z,2.00
2022-11-10T15:39:15.456Z,2.10
2022-11-10T15:41:47.285Z,1.60
2022-11-10T15:44:20.967Z,1.60
2022-11-10T15:46:52.718Z,1.77
2022-11-10T15:49:24.372Z,1.50
2022-11-10T15:51:53.462Z,1.90
2022-11-10T15:54:25.190Z,1.92
2022-11-10T15:56:54.843Z,1.60
2022-11-10T15:59:23.064Z,1.95
2022-11-10T16:01:51.638Z,1.80
2022-11-10T16:04:20.462Z,2.22
2022-11-10T16:06:48.890Z,2.25
2022-11-10T16:09:17.216Z,2.45
2022-11-10T16:11:46.699Z,2.70
2022-11-10T16:14:18.018Z,2.38
2022-11-10T16:16:46.666Z,2.80
2022-11-10T16:19:15.093Z,2.30
2022-11-10T16:21:43.282Z,2.17
2022-11-10T16:24:11.646Z,2.17
2022-11-10T16:26:39.847Z,2.23
2022-11-10T16:29:13.719Z,2.20
2022-11-10T16:31:43.184Z,3.08
2022-11-10T16:34:14.767Z,3.88
2022-11-10T16:36:46.057Z,3.60
2022-11-10T16:39:16.211Z,4.53
2022-11-10T16:41:44.708Z,2.70
2022-11-10T16:44:13.777Z,3.30
2022-11-10T16:46:44.570Z,2.93
2022-11-10T16:49:25.840Z,2.87
2022-11-10T16:51:54.268Z,3.93
2022-11-10T16:54:22.552Z,3.83
2022-11-10T16:56:50.744Z,3.70
2022-11-10T16:59:19.072Z,4.73
2022-11-10T17:01:49.867Z,4.00
2022-11-10T17:04:18.237Z,3.77
2022-11-10T17:06:46.529Z,3.57
2022-11-10T17:09:18.854Z,4.87
2022-11-10T17:11:47.203Z,3.70
2022-11-10T17:14:16.533Z,3.20
2022-11-10T17:16:46.491Z,2.90
2022-11-10T17:19:24.177Z,3.53
2022-11-10T17:21:53.934Z,3.07
2022-11-10T17:24:22.501Z,3.53
2022-11-10T17:26:51.056Z,2.87
2022-11-10T17:29:21.036Z,3.33
2022-11-10T17:31:50.249Z,2.87
2022-11-10T17:34:19.706Z,2.87
2022-11-10T17:36:49.889Z,3.20
2022-11-10T17:39:18.816Z,3.13
2022-11-10T17:41:47.003Z,3.10
2022-11-10T17:44:16.187Z,3.30
2022-11-10T17:46:44.617Z,3.90
2022-11-10T17:49:12.813Z,4.47
2022-11-10T17:51:44.634Z,5.10
2022-11-10T17:54:14.870Z,5.50
2022-11-10T17:56:43.534Z,5.67
2022-11-10T17:59:12.021Z,5.00
2022-11-10T18:01:40.384Z,6.33
2022-11-10T18:04:12.692Z,7.30
2022-11-10T18:06:42.409Z,6.40
2022-11-10T18:09:10.633Z,5.27
2022-11-10T18:11:38.923Z,4.93
2022-11-10T18:14:07.165Z,4.37
2022-11-10T18:16:35.760Z,4.50
2022-11-10T18:19:04.296Z,4.23
2022-11-10T18:21:32.744Z,5.20
2022-11-10T18:24:02.493Z,4.83
2022-11-10T18:26:30.744Z,6.47
2022-11-10T18:28:58.879Z,7.63
2022-11-10T18:31:27.931Z,6.47
2022-11-10T18:33:56.494Z,6.20
2022-11-10T18:36:24.819Z,9.30
2022-11-10T18:38:53.272Z,11.30
2022-11-10T18:41:40.400Z,14.10
2022-11-10T18:44:08.924Z,7.10
2022-11-10T18:46:37.386Z,6.23
2022-11-10T18:49:05.788Z,5.43
2022-11-10T18:51:34.114Z,5.00
2022-11-10T18:54:02.655Z,5.20
2022-11-10T18:56:32.318Z,4.57
2022-11-10T18:59:00.600Z,4.77
2022-11-10T19:01:28.904Z,5.40
2022-11-10T19:03:57.229Z,6.75
2022-11-10T19:06:25.645Z,5.25
2022-11-10T19:08:54.058Z,4.57
2022-11-10T19:11:22.719Z,5.60
2022-11-10T19:13:52.683Z,6.07
2022-11-10T19:16:21.516Z,7.97
2022-11-10T19:18:49.647Z,10.03
2022-11-10T19:21:20.511Z,4.88
2022-11-10T19:23:49.005Z,4.50
2022-11-10T19:26:22.586Z,4.37
2022-11-10T19:28:55.408Z,4.57
2022-11-10T19:31:24.797Z,4.60
2022-11-10T19:33:56.247Z,5.63
2022-11-10T19:36:26.071Z,5.95
2022-11-10T19:38:55.433Z,5.30
2022-11-10T19:41:25.937Z,6.32
2022-11-10T19:43:56.072Z,4.95
2022-11-10T19:46:25.516Z,5.40
2022-11-10T19:48:54.388Z,5.60
2022-11-10T19:51:23.222Z,5.00
2022-11-10T19:53:58.858Z,4.97
2022-11-10T19:56:31.467Z,4.93
2022-11-10T19:59:01.649Z,5.50
2022-11-10T20:01:32.161Z,4.78
2022-11-10T20:04:01.422Z,5.03
2022-11-10T20:06:29.676Z,5.45
2022-11-10T20:08:57.930Z,5.38
2022-11-10T20:11:27.281Z,5.78
2022-11-10T20:13:57.387Z,5.75
2022-11-10T20:16:27.164Z,4.85
2022-11-10T20:18:55.469Z,5.15
2022-11-10T20:21:24.414Z,5.55
2022-11-10T20:23:56.535Z,5.30
2022-11-10T20:26:25.507Z,5.05
2022-11-10T20:28:54.063Z,5.10
2022-11-10T20:31:24.397Z,4.80
2022-11-10T20:33:55.357Z,5.13
2022-11-10T20:36:25.990Z,5.40
2022-11-10T20:38:55.200Z,6.88
2022-11-10T20:41:26.478Z,4.97
2022-11-10T20:43:55.231Z,5.00
2022-11-10T20:49:13.670Z,5.20
2022-11-10T20:51:42.533Z,5.50
2022-11-10T20:54:11.011Z,5.85
2022-11-10T20:56:39.351Z,6.25
2022-11-10T20:59:07.811Z,6.18
2022-11-10T21:01:37.633Z,6.38
2022-11-10T21:04:07.012Z,6.30
2022-11-10T21:06:36.654Z,7.05
2022-11-10T21:09:06.813Z,7.50
2022-11-10T21:11:52.527Z,6.15
2022-11-10T21:14:21.360Z,7.30
2022-11-10T21:16:49.662Z,6.60
2022-11-10T21:19:18.044Z,6.65
2022-11-10T21:21:47.469Z,6.85
2022-11-10T21:24:15.696Z,6.20
2022-11-10T21:26:44.109Z,6.50
2022-11-10T21:29:12.613Z,6.30
2022-11-10T21:31:40.898Z,6.70
2022-11-10T21:34:09.296Z,7.03
2022-11-10T21:36:37.646Z,6.43
2022-11-10T21:39:07.596Z,6.80
2022-11-10T21:41:35.988Z,7.30
2022-11-10T21:44:04.238Z,7.37
2022-11-10T21:46:32.519Z,7.60
2022-11-10T21:49:06.112Z,8.10
2022-11-10T21:51:35.865Z,7.60
2022-11-10T21:54:04.340Z,7.77
2022-11-10T21:56:33.972Z,7.83
2022-11-10T21:59:02.368Z,8.00
2022-11-10T22:01:30.887Z,8.63
2022-11-10T22:03:59.148Z,7.50
2022-11-10T22:06:47.769Z,6.77
2022-11-10T22:09:36.794Z,8.10
2022-11-10T22:12:24.270Z,7.23
2022-11-10T22:15:10.255Z,7.17
2022-11-10T22:17:55.743Z,7.57
2022-11-10T22:20:23.855Z,7.90
2022-11-10T22:22:52.219Z,8.07
2022-11-10T22:25:20.456Z,7.73
2022-11-10T22:27:49.999Z,8.20
2022-11-10T22:30:18.314Z,9.83
2022-11-10T22:32:46.957Z,8.30
2022-11-10T22:35:35.306Z,8.73
2022-11-10T22:38:07.114Z,7.77
2022-11-10T22:40:54.119Z,8.00
2022-11-10T22:43:41.342Z,8.30
2022-11-10T22:46:09.659Z,8.00
2022-11-10T22:48:37.951Z,7.67
2022-11-10T22:51:06.400Z,8.60
2022-11-10T22:53:38.322Z,8.00
2022-11-10T22:56:06.882Z,7.93
2022-11-10T22:58:36.666Z,7.20
2022-11-10T23:01:06.236Z,8.33
2022-11-10T23:03:35.133Z,8.13
2022-11-10T23:06:03.532Z,8.17
2022-11-10T23:08:32.261Z,8.20
2022-11-10T23:11:01.598Z,8.37
2022-11-10T23:13:30.430Z,9.33
2022-11-10T23:16:03.958Z,8.13
2022-11-10T23:18:32.577Z,9.73
2022-11-10T23:21:02.352Z,9.93
2022-11-10T23:23:32.963Z,10.70
2022-11-10T23:26:02.883Z,10.10
2022-11-10T23:28:32.331Z,10.83
2022-11-10T23:31:06.114Z,10.87
2022-11-10T23:33:35.140Z,11.03
2022-11-10T23:36:04.135Z,10.60
2022-11-10T23:38:32.986Z,10.33
2022-11-10T23:41:02.149Z,11.87
2022-11-10T23:43:30.663Z,11.17
2022-11-10T23:46:07.658Z,10.87
2022-11-10T23:48:38.289Z,11.40
2022-11-10T23:51:07.441Z,10.97
2022-11-10T23:53:36.090Z,10.30
2022-11-10T23:56:06.854Z,10.43
2022-11-10T23:58:35.095Z,9.30
